createdAt,value
2024-01-05T00:03:20.647Z,6.78
2024-01-05T00:08:22.549Z,6.18
2024-01-05T00:13:24.264Z,6.05
2024-01-05T00:18:26.074Z,7.10
2024-01-05T00:23:27.833Z,8.52
2024-01-05T00:28:29.532Z,8.13
2024-01-05T00:33:31.467Z,7.25
2024-01-05T00:38:34.157Z,5.28
2024-01-05T00:43:35.916Z,4.38
2024-01-05T00:48:37.962Z,2.90
2024-01-05T00:53:40.208Z,4.93
2024-01-05T00:58:42.005Z,5.38
2024-01-05T01:03:43.801Z,4.50
2024-01-05T01:08:45.633Z,4.78
2024-01-05T01:13:47.434Z,4.30
2024-01-05T01:18:49.239Z,3.03
2024-01-05T01:23:52.514Z,3.70
2024-01-05T01:28:54.320Z,2.50
2024-01-05T01:33:56.112Z,1.90
2024-01-05T01:38:58.136Z,3.30
2024-01-05T01:44:00.181Z,2.10
2024-01-05T01:49:02.323Z,4.60
2024-01-05T01:54:06.814Z,3.03
2024-01-05T01:59:08.775Z,3.22
2024-01-05T02:04:16.956Z,1.80
2024-01-05T02:09:19.801Z,2.05
2024-01-05T02:14:21.685Z,1.70
2024-01-05T02:19:23.550Z,2.15
2024-01-05T02:24:25.434Z,2.05
2024-01-05T02:29:27.134Z,2.60
2024-01-05T02:34:28.961Z,2.17
2024-01-05T02:39:30.812Z,2.10
2024-01-05T02:44:32.578Z,1.88
2024-01-05T02:49:34.410Z,1.30
2024-01-05T02:54:36.308Z,1.10
2024-01-05T02:59:38.018Z,1.15
2024-01-05T03:04:44.382Z,0.63
2024-01-05T03:09:46.187Z,2.60
2024-01-05T03:14:47.912Z,2.95
2024-01-05T03:19:49.762Z,3.65
2024-01-05T03:24:51.610Z,3.28
2024-01-05T03:29:53.562Z,3.80
2024-01-05T03:34:55.452Z,2.00
2024-01-05T03:39:57.233Z,2.10
2024-01-05T03:44:59.113Z,1.80
2024-01-05T03:50:01.013Z,3.45
2024-01-05T03:55:03.186Z,2.70
2024-01-05T04:00:06.046Z,2.25
2024-01-05T04:05:08.918Z,2.70
2024-01-05T04:10:10.929Z,1.80
2024-01-05T04:15:13.172Z,1.65
2024-01-05T04:20:15.061Z,1.40
2024-01-05T04:25:16.835Z,1.58
2024-01-05T04:30:18.681Z,2.05
2024-01-05T04:35:20.590Z,1.90
2024-01-05T04:40:23.116Z,1.67
2024-01-05T04:45:25.679Z,1.65
2024-01-05T04:50:27.535Z,1.70
2024-01-05T04:55:29.275Z,1.02
2024-01-05T05:00:31.081Z,1.05
2024-01-05T05:05:32.843Z,1.20
2024-01-05T05:10:34.608Z,2.22
2024-01-05T05:15:38.157Z,1.85
2024-01-05T05:20:39.935Z,1.52
2024-01-05T05:25:41.682Z,2.17
2024-01-05T05:30:44.430Z,1.33
2024-01-05T05:35:46.362Z,2.40
2024-01-05T05:40:48.119Z,5.53
2024-01-05T05:45:50.643Z,6.22
2024-01-05T05:50:52.443Z,3.53
2024-01-05T05:55:54.225Z,2.22
2024-01-05T06:00:56.143Z,1.42
2024-01-05T06:05:58.687Z,1.13
2024-01-05T06:11:00.449Z,1.13
2024-01-05T06:16:02.230Z,1.35
2024-01-05T06:21:04.372Z,0.60
2024-01-05T06:26:06.068Z,0.90
2024-01-05T06:31:07.994Z,0.70
2024-01-05T06:36:10.014Z,0.93
2024-01-05T06:41:11.947Z,0.80
2024-01-05T06:46:13.720Z,1.42
2024-01-05T06:51:15.437Z,1.98
2024-01-05T06:56:19.801Z,2.70
2024-01-05T07:01:21.547Z,3.95
2024-01-05T07:06:23.625Z,1.70
2024-01-05T07:11:25.861Z,0.88
2024-01-05T07:16:27.712Z,1.05
2024-01-05T07:21:29.604Z,1.88
2024-01-05T07:26:31.344Z,2.00
2024-01-05T07:31:33.058Z,1.60
2024-01-05T07:36:34.835Z,5.55
2024-01-05T07:41:36.552Z,6.95
2024-01-05T07:46:42.966Z,6.00
2024-01-05T07:51:45.053Z,4.32
2024-01-05T07:56:46.951Z,3.25
2024-01-05T08:01:52.994Z,6.50
2024-01-05T08:06:54.717Z,6.40
2024-01-05T08:11:56.573Z,6.65
2024-01-05T08:16:58.318Z,5.50
2024-01-05T08:22:00.016Z,4.65
2024-01-05T08:27:01.851Z,7.13
2024-01-05T08:32:04.236Z,4.80
2024-01-05T08:37:06.000Z,6.18
2024-01-05T08:42:08.328Z,7.00
2024-01-05T08:47:10.432Z,8.68
2024-01-05T08:52:12.818Z,9.07
2024-01-05T08:57:15.300Z,8.77
2024-01-05T09:02:17.082Z,7.05
2024-01-05T09:07:18.874Z,6.35
2024-01-05T09:12:20.736Z,6.85
2024-01-05T09:17:22.566Z,8.60
2024-01-05T09:22:24.615Z,10.18
2024-01-05T09:27:26.770Z,3.90
2024-01-05T09:32:28.513Z,4.40
2024-01-05T09:37:30.247Z,4.55
2024-01-05T09:42:32.022Z,3.03
2024-01-05T09:47:36.066Z,5.88
2024-01-05T09:52:40.219Z,7.22
2024-01-05T09:57:45.314Z,6.50
2024-01-05T10:03:00.151Z,7.13
2024-01-05T10:08:02.462Z,8.00
2024-01-05T10:13:06.752Z,21.15
2024-01-05T10:18:19.926Z,14.25
2024-01-05T10:23:24.545Z,4.25
2024-01-05T10:28:33.371Z,4.07
2024-01-05T10:33:35.259Z,8.68
2024-01-05T10:38:37.109Z,13.63
2024-01-05T10:43:42.752Z,10.93
2024-01-05T10:48:45.064Z,12.65
2024-01-05T10:53:48.368Z,20.67
2024-01-05T10:58:50.848Z,24.95
2024-01-05T11:03:54.735Z,21.85
2024-01-05T11:09:18.226Z,21.20
2024-01-05T11:14:35.912Z,18.65
2024-01-05T11:19:52.022Z,18.42
2024-01-05T11:24:56.470Z,19.98
2024-01-05T11:29:59.649Z,21.63
2024-01-05T11:35:02.453Z,28.23
2024-01-05T11:40:04.737Z,32.13
2024-01-05T11:45:12.516Z,29.00
2024-01-05T11:50:34.632Z,29.98
2024-01-05T12:00:46.031Z,16.50
2024-01-05T12:05:51.221Z,11.70
2024-01-05T12:10:57.687Z,8.30
2024-01-05T12:16:02.484Z,12.63
2024-01-05T12:21:05.098Z,10.70
2024-01-05T12:26:08.755Z,15.88
2024-01-05T12:31:14.509Z,20.05
2024-01-05T12:36:28.874Z,5.60
2024-01-05T12:41:31.211Z,5.05
2024-01-05T12:46:41.523Z,7.97
2024-01-05T12:51:48.639Z,2.83
2024-01-05T12:56:52.220Z,4.68
2024-01-05T13:02:07.134Z,2.50
2024-01-05T13:07:14.335Z,18.60
2024-01-05T13:12:16.320Z,3.88
2024-01-05T13:17:18.037Z,3.15
2024-01-05T13:22:20.150Z,3.90
2024-01-05T13:27:22.288Z,3.28
2024-01-05T13:32:24.200Z,4.72
2024-01-05T13:37:27.032Z,2.67
2024-01-05T13:42:30.045Z,3.22
2024-01-05T13:47:38.098Z,2.92
2024-01-05T13:52:39.961Z,17.60
2024-01-05T13:57:41.894Z,4.93
2024-01-05T14:02:44.208Z,3.85
2024-01-05T14:07:46.025Z,3.30
2024-01-05T14:12:48.215Z,4.22
2024-01-05T14:17:50.549Z,3.90
2024-01-05T14:22:52.592Z,3.85
2024-01-05T14:27:54.379Z,3.70
2024-01-05T14:32:56.628Z,4.07
2024-01-05T14:37:58.364Z,4.22
2024-01-05T14:43:00.164Z,6.93
2024-01-05T14:48:02.114Z,6.10
2024-01-05T14:53:10.752Z,8.43
2024-01-05T14:58:13.805Z,7.75
2024-01-05T15:03:15.655Z,8.60
2024-01-05T15:08:17.952Z,5.70
2024-01-05T15:13:19.746Z,4.72
2024-01-05T15:18:21.933Z,5.43
2024-01-05T15:23:24.179Z,2.95
2024-01-05T15:28:25.960Z,2.42
2024-01-05T15:33:27.808Z,7.55
2024-01-05T15:38:29.584Z,4.50
2024-01-05T15:43:31.920Z,4.03
2024-01-05T15:48:33.908Z,5.03
2024-01-05T15:53:36.191Z,6.80
2024-01-05T15:58:39.440Z,6.45
2024-01-05T16:03:42.255Z,7.25
2024-01-05T16:23:10.956Z,7.22
2024-01-05T16:28:12.886Z,7.68
2024-01-05T16:33:15.057Z,4.53
2024-01-05T16:38:16.959Z,10.00
2024-01-05T16:43:18.742Z,6.18
2024-01-05T16:48:20.899Z,7.32
2024-01-05T16:53:24.430Z,8.45
2024-01-05T16:58:26.268Z,12.23
2024-01-05T17:03:28.407Z,51.17
2024-01-05T17:08:30.357Z,18.98
2024-01-05T17:13:35.159Z,17.48
2024-01-05T17:18:38.889Z,14.35
2024-01-05T17:23:42.428Z,6.35
2024-01-05T17:28:44.751Z,13.10
2024-01-05T17:33:46.994Z,11.63
2024-01-05T17:38:50.821Z,10.57
2024-01-05T17:43:52.946Z,3.58
2024-01-05T17:48:55.235Z,3.83
2024-01-05T17:54:01.238Z,2.72
2024-01-05T17:59:04.885Z,3.00
2024-01-05T18:04:07.065Z,5.00
2024-01-05T18:09:09.310Z,4.28
2024-01-05T18:14:14.465Z,4.20
2024-01-05T18:19:16.727Z,3.17
2024-01-05T18:24:18.740Z,2.85
2024-01-05T18:29:25.566Z,2.60
2024-01-05T18:34:32.004Z,7.47
2024-01-05T18:39:37.168Z,6.05
2024-01-05T18:44:41.072Z,6.68
2024-01-05T18:49:43.101Z,6.07
2024-01-05T18:54:44.899Z,4.97
2024-01-05T18:59:46.816Z,4.80
2024-01-05T19:04:49.154Z,4.10
2024-01-05T19:09:51.669Z,6.10
2024-01-05T19:14:53.993Z,4.18
2024-01-05T19:19:55.878Z,2.85
2024-01-05T19:24:58.129Z,5.50
2024-01-05T19:30:00.941Z,5.45
2024-01-05T19:35:04.894Z,3.95
2024-01-05T19:40:08.258Z,8.63
2024-01-05T19:45:12.980Z,19.00
2024-01-05T19:50:15.269Z,16.65
2024-01-05T19:55:17.479Z,5.50
2024-01-05T20:00:19.834Z,10.65
2024-01-05T20:05:25.036Z,17.50
2024-01-05T20:10:28.665Z,11.05
2024-01-05T20:15:31.864Z,10.10
2024-01-05T20:20:34.091Z,12.18
2024-01-05T20:25:37.284Z,6.90
2024-01-05T20:30:39.219Z,11.38
2024-01-05T20:35:41.219Z,18.45
2024-01-05T20:40:43.300Z,36.47
2024-01-05T20:45:45.414Z,38.00
2024-01-05T20:50:47.425Z,35.47
2024-01-05T20:55:55.723Z,34.05
2024-01-05T21:00:59.137Z,29.38
2024-01-05T21:06:02.943Z,26.05
2024-01-05T21:11:05.190Z,25.27
2024-01-05T21:16:07.709Z,26.23
2024-01-05T21:21:10.729Z,28.23
2024-01-05T21:26:14.269Z,25.38
2024-01-05T21:31:17.650Z,26.95
2024-01-05T21:36:19.594Z,24.27
2024-01-05T21:41:23.846Z,20.50
2024-01-05T21:46:26.086Z,19.10
2024-01-05T21:51:28.268Z,15.10
2024-01-05T21:56:30.217Z,8.32
2024-01-05T22:01:32.371Z,19.52
2024-01-05T22:06:34.933Z,16.80
2024-01-05T22:11:43.950Z,15.52
2024-01-05T22:16:46.079Z,9.48
2024-01-05T22:21:48.104Z,5.03
2024-01-05T22:26:50.040Z,4.43
2024-01-05T22:31:52.964Z,13.13
2024-01-05T22:36:55.638Z,12.13
2024-01-05T22:41:57.752Z,7.53
2024-01-05T22:47:05.832Z,3.45
2024-01-05T22:52:09.252Z,3.33
2024-01-05T22:57:11.966Z,4.32
2024-01-05T23:02:14.304Z,4.60
2024-01-05T23:07:16.542Z,4.30
2024-01-05T23:12:18.459Z,6.43
2024-01-05T23:17:20.216Z,4.05
2024-01-05T23:22:22.648Z,3.70
2024-01-05T23:27:26.338Z,5.70
2024-01-05T23:32:28.629Z,12.50
2024-01-05T23:37:33.111Z,9.98
2024-01-05T23:42:35.016Z,10.40
2024-01-05T23:47:36.761Z,9.75
2024-01-05T23:52:39.079Z,9.43
2024-01-05T23:57:41.698Z,6.60
